sensor_id;sensor_type;location;lat;lon;timestamp;pressure;altitude;pressure_sealevel;temperature;humidity
78407;BME280;67692;51.074;-1.790;2023-05-24T00:01:32;102103.16;;;12.86;68.46
78407;BME280;67692;51.074;-1.790;2023-05-24T00:03:59;102115.31;;;12.85;68.38
78407;BME280;67692;51.074;-1.790;2023-05-24T00:06:26;102105.94;;;12.82;68.68
78407;BME280;67692;51.074;-1.790;2023-05-24T00:08:53;102110.81;;;12.89;68.33
78407;BME280;67692;51.074;-1.790;2023-05-24T00:11:20;102106.59;;;12.86;68.24
78407;BME280;67692;51.074;-1.790;2023-05-24T00:13:48;102103.59;;;12.94;67.85
78407;BME280;67692;51.074;-1.790;2023-05-24T00:16:15;102111.13;;;12.82;68.61
78407;BME280;67692;51.074;-1.790;2023-05-24T00:18:41;102102.84;;;12.92;68.12
78407;BME280;67692;51.074;-1.790;2023-05-24T00:21:11;102103.41;;;12.97;67.73
78407;BME280;67692;51.074;-1.790;2023-05-24T00:23:38;102090.94;;;12.88;67.83
78407;BME280;67692;51.074;-1.790;2023-05-24T00:26:06;102096.56;;;12.80;68.04
78407;BME280;67692;51.074;-1.790;2023-05-24T00:28:33;102102.16;;;12.72;68.17
78407;BME280;67692;51.074;-1.790;2023-05-24T00:31:02;102099.91;;;12.66;68.52
78407;BME280;67692;51.074;-1.790;2023-05-24T00:33:28;102092.22;;;12.49;68.82
78407;BME280;67692;51.074;-1.790;2023-05-24T00:35:55;102089.19;;;12.41;69.23
78407;BME280;67692;51.074;-1.790;2023-05-24T00:38:22;102098.41;;;12.46;68.86
78407;BME280;67692;51.074;-1.790;2023-05-24T00:40:48;102091.88;;;12.55;68.51
78407;BME280;67692;51.074;-1.790;2023-05-24T00:43:15;102099.56;;;12.57;68.08
78407;BME280;67692;51.074;-1.790;2023-05-24T00:45:42;102096.88;;;12.58;68.22
78407;BME280;67692;51.074;-1.790;2023-05-24T00:48:11;102092.22;;;12.49;68.53
78407;BME280;67692;51.074;-1.790;2023-05-24T00:50:38;102093.72;;;12.37;69.08
78407;BME280;67692;51.074;-1.790;2023-05-24T00:53:06;102092.88;;;12.37;68.96
78407;BME280;67692;51.074;-1.790;2023-05-24T00:55:33;102085.44;;;12.31;68.96
78407;BME280;67692;51.074;-1.790;2023-05-24T00:58:01;102081.81;;;12.33;69.17
78407;BME280;67692;51.074;-1.790;2023-05-24T01:00:28;102084.81;;;12.26;69.32
78407;BME280;67692;51.074;-1.790;2023-05-24T01:02:55;102082.78;;;12.15;69.78
78407;BME280;67692;51.074;-1.790;2023-05-24T01:05:23;102076.59;;;12.17;69.70
78407;BME280;67692;51.074;-1.790;2023-05-24T01:08:03;102076.06;;;11.95;70.54
78407;BME280;67692;51.074;-1.790;2023-05-24T01:10:40;102063.66;;;12.00;70.25
78407;BME280;67692;51.074;-1.790;2023-05-24T01:13:16;102070.38;;;12.04;70.19
78407;BME280;67692;51.074;-1.790;2023-05-24T01:15:50;102071.78;;;11.94;70.35
78407;BME280;67692;51.074;-1.790;2023-05-24T01:18:24;102076.72;;;11.99;70.19
78407;BME280;67692;51.074;-1.790;2023-05-24T01:21:01;102068.28;;;12.11;69.89
78407;BME280;67692;51.074;-1.790;2023-05-24T01:23:40;102074.09;;;12.16;69.55
78407;BME280;67692;51.074;-1.790;2023-05-24T01:26:19;102075.25;;;12.10;69.69
78407;BME280;67692;51.074;-1.790;2023-05-24T01:28:49;102071.72;;;12.11;69.33
78407;BME280;67692;51.074;-1.790;2023-05-24T01:31:17;102079.44;;;12.13;69.40
78407;BME280;67692;51.074;-1.790;2023-05-24T01:33:45;102082.44;;;12.05;69.04
78407;BME280;67692;51.074;-1.790;2023-05-24T01:36:11;102089.03;;;11.95;69.43
78407;BME280;67692;51.074;-1.790;2023-05-24T01:38:38;102084.31;;;11.69;70.59
78407;BME280;67692;51.074;-1.790;2023-05-24T01:41:14;102086.81;;;11.70;70.75
78407;BME280;67692;51.074;-1.790;2023-05-24T01:43:50;102085.22;;;11.85;70.11
78407;BME280;67692;51.074;-1.790;2023-05-24T01:46:34;102082.97;;;11.61;70.83
78407;BME280;67692;51.074;-1.790;2023-05-24T01:49:08;102079.38;;;11.47;71.27
78407;BME280;67692;51.074;-1.790;2023-05-24T01:51:38;102081.66;;;11.53;71.27
78407;BME280;67692;51.074;-1.790;2023-05-24T01:54:06;102083.34;;;11.54;71.29
78407;BME280;67692;51.074;-1.790;2023-05-24T01:56:34;102083.25;;;11.55;71.37
78407;BME280;67692;51.074;-1.790;2023-05-24T01:59:04;102081.56;;;11.54;71.23
78407;BME280;67692;51.074;-1.790;2023-05-24T02:01:32;102081.06;;;11.48;71.22
78407;BME280;67692;51.074;-1.790;2023-05-24T02:03:59;102072.53;;;11.46;71.06
78407;BME280;67692;51.074;-1.790;2023-05-24T02:06:26;102068.16;;;11.46;70.88
78407;BME280;67692;51.074;-1.790;2023-05-24T02:08:52;102066.63;;;11.42;70.81
78407;BME280;67692;51.074;-1.790;2023-05-24T02:11:19;102066.78;;;11.39;70.93
78407;BME280;67692;51.074;-1.790;2023-05-24T02:13:47;102071.69;;;11.45;70.82
78407;BME280;67692;51.074;-1.790;2023-05-24T02:16:15;102074.34;;;11.44;70.68
78407;BME280;67692;51.074;-1.790;2023-05-24T02:18:42;102075.81;;;11.32;70.67
78407;BME280;67692;51.074;-1.790;2023-05-24T02:21:11;102081.59;;;11.37;70.00
78407;BME280;67692;51.074;-1.790;2023-05-24T02:23:37;102081.31;;;11.43;69.71
78407;BME280;67692;51.074;-1.790;2023-05-24T02:26:04;102077.56;;;11.49;69.42
78407;BME280;67692;51.074;-1.790;2023-05-24T02:28:30;102074.34;;;11.44;69.59
78407;BME280;67692;51.074;-1.790;2023-05-24T02:30:57;102067.19;;;11.31;70.42
78407;BME280;67692;51.074;-1.790;2023-05-24T02:33:25;102071.38;;;11.34;70.16
78407;BME280;67692;51.074;-1.790;2023-05-24T02:35:53;102073.97;;;11.34;69.85
78407;BME280;67692;51.074;-1.790;2023-05-24T02:38:20;102072.44;;;11.30;69.55
78407;BME280;67692;51.074;-1.790;2023-05-24T02:40:47;102066.28;;;11.15;69.61
78407;BME280;67692;51.074;-1.790;2023-05-24T02:43:13;102068.53;;;11.04;70.07
78407;BME280;67692;51.074;-1.790;2023-05-24T02:45:40;102071.31;;;11.18;69.56
78407;BME280;67692;51.074;-1.790;2023-05-24T02:48:07;102075.09;;;11.11;69.95
78407;BME280;67692;51.074;-1.790;2023-05-24T02:50:34;102083.59;;;10.96;70.76
78407;BME280;67692;51.074;-1.790;2023-05-24T02:53:01;102077.34;;;10.83;71.00
78407;BME280;67692;51.074;-1.790;2023-05-24T02:55:28;102077.75;;;10.92;70.71
78407;BME280;67692;51.074;-1.790;2023-05-24T02:57:56;102078.16;;;11.02;70.22
78407;BME280;67692;51.074;-1.790;2023-05-24T03:00:23;102080.81;;;11.00;70.28
78407;BME280;67692;51.074;-1.790;2023-05-24T03:02:49;102069.47;;;11.03;70.07
78407;BME280;67692;51.074;-1.790;2023-05-24T03:05:16;102069.06;;;10.93;70.26
78407;BME280;67692;51.074;-1.790;2023-05-24T03:07:44;102067.81;;;10.83;70.96
78407;BME280;67692;51.074;-1.790;2023-05-24T03:10:11;102069.72;;;10.80;70.85
78407;BME280;67692;51.074;-1.790;2023-05-24T03:12:37;102063.09;;;10.74;71.39
78407;BME280;67692;51.074;-1.790;2023-05-24T03:15:05;102067.44;;;10.73;71.12
78407;BME280;67692;51.074;-1.790;2023-05-24T03:17:32;102071.19;;;10.85;70.70
78407;BME280;67692;51.074;-1.790;2023-05-24T03:19:59;102066.25;;;10.62;71.09
78407;BME280;67692;51.074;-1.790;2023-05-24T03:22:25;102064.34;;;10.65;71.48
78407;BME280;67692;51.074;-1.790;2023-05-24T03:24:53;102062.13;;;10.58;71.25
78407;BME280;67692;51.074;-1.790;2023-05-24T03:27:20;102067.44;;;10.55;71.24
78407;BME280;67692;51.074;-1.790;2023-05-24T03:29:46;102061.06;;;10.62;70.82
78407;BME280;67692;51.074;-1.790;2023-05-24T03:32:13;102066.31;;;10.60;71.14
78407;BME280;67692;51.074;-1.790;2023-05-24T03:34:40;102062.56;;;10.49;71.21
78407;BME280;67692;51.074;-1.790;2023-05-24T03:37:06;102068.97;;;10.40;71.50
78407;BME280;67692;51.074;-1.790;2023-05-24T03:39:33;102062.78;;;10.44;71.70
78407;BME280;67692;51.074;-1.790;2023-05-24T03:42:01;102064.53;;;10.43;71.80
78407;BME280;67692;51.074;-1.790;2023-05-24T03:44:27;102052.81;;;10.54;71.27
78407;BME280;67692;51.074;-1.790;2023-05-24T03:46:54;102060.31;;;10.60;70.97
78407;BME280;67692;51.074;-1.790;2023-05-24T03:49:20;102063.59;;;10.63;70.89
78407;BME280;67692;51.074;-1.790;2023-05-24T03:51:47;102064.41;;;10.64;70.67
78407;BME280;67692;51.074;-1.790;2023-05-24T03:54:13;102056.94;;;10.58;70.67
78407;BME280;67692;51.074;-1.790;2023-05-24T03:56:42;102065.56;;;10.58;70.84
78407;BME280;67692;51.074;-1.790;2023-05-24T03:59:10;102077.28;;;10.65;70.50
78407;BME280;67692;51.074;-1.790;2023-05-24T04:01:38;102076.13;;;10.54;71.36
78407;BME280;67692;51.074;-1.790;2023-05-24T04:04:04;102074.88;;;10.43;71.44
78407;BME280;67692;51.074;-1.790;2023-05-24T04:06:31;102075.66;;;10.46;71.52
78407;BME280;67692;51.074;-1.790;2023-05-24T04:08:58;102080.19;;;10.40;71.47
78407;BME280;67692;51.074;-1.790;2023-05-24T04:11:25;102081.19;;;10.18;71.94
78407;BME280;67692;51.074;-1.790;2023-05-24T04:13:52;102076.78;;;10.20;71.95
78407;BME280;67692;51.074;-1.790;2023-05-24T04:16:22;102080.53;;;10.33;71.08
78407;BME280;67692;51.074;-1.790;2023-05-24T04:18:50;102077.59;;;10.40;71.28
78407;BME280;67692;51.074;-1.790;2023-05-24T04:21:17;102075.44;;;10.31;71.67
78407;BME280;67692;51.074;-1.790;2023-05-24T04:23:43;102092.44;;;10.37;71.16
78407;BME280;67692;51.074;-1.790;2023-05-24T04:26:10;102077.25;;;10.48;70.62
78407;BME280;67692;51.074;-1.790;2023-05-24T04:28:36;102081.28;;;10.54;70.19
78407;BME280;67692;51.074;-1.790;2023-05-24T04:31:04;102086.28;;;10.58;70.02
78407;BME280;67692;51.074;-1.790;2023-05-24T04:33:32;102084.59;;;10.57;70.21
78407;BME280;67692;51.074;-1.790;2023-05-24T04:35:59;102092.88;;;10.47;71.08
78407;BME280;67692;51.074;-1.790;2023-05-24T04:38:26;102087.84;;;10.43;71.02
78407;BME280;67692;51.074;-1.790;2023-05-24T04:40:56;102079.91;;;10.28;71.50
78407;BME280;67692;51.074;-1.790;2023-05-24T04:43:23;102073.03;;;10.27;72.12
78407;BME280;67692;51.074;-1.790;2023-05-24T04:45:50;102077.13;;;10.32;71.79
78407;BME280;67692;51.074;-1.790;2023-05-24T04:48:18;102065.09;;;10.31;71.68
78407;BME280;67692;51.074;-1.790;2023-05-24T04:50:46;102071.94;;;10.32;72.18
78407;BME280;67692;51.074;-1.790;2023-05-24T04:53:13;102075.16;;;10.37;71.70
78407;BME280;67692;51.074;-1.790;2023-05-24T04:55:41;102064.94;;;10.34;71.72
78407;BME280;67692;51.074;-1.790;2023-05-24T04:58:07;102067.59;;;10.33;71.78
78407;BME280;67692;51.074;-1.790;2023-05-24T05:00:34;102079.97;;;10.45;71.52
78407;BME280;67692;51.074;-1.790;2023-05-24T05:03:00;102075.06;;;10.39;71.76
78407;BME280;67692;51.074;-1.790;2023-05-24T05:05:27;102082.84;;;10.39;71.64
78407;BME280;67692;51.074;-1.790;2023-05-24T05:07:56;102088.00;;;10.39;72.08
78407;BME280;67692;51.074;-1.790;2023-05-24T05:10:23;102088.38;;;10.31;72.52
78407;BME280;67692;51.074;-1.790;2023-05-24T05:12:50;102086.06;;;10.44;72.20
78407;BME280;67692;51.074;-1.790;2023-05-24T05:15:17;102086.06;;;10.44;72.07
78407;BME280;67692;51.074;-1.790;2023-05-24T05:17:43;102082.50;;;10.47;72.10
78407;BME280;67692;51.074;-1.790;2023-05-24T05:20:10;102090.28;;;10.47;71.82
78407;BME280;67692;51.074;-1.790;2023-05-24T05:22:37;102086.63;;;10.51;72.09
78407;BME280;67692;51.074;-1.790;2023-05-24T05:25:05;102092.34;;;10.38;72.68
78407;BME280;67692;51.074;-1.790;2023-05-24T05:27:32;102087.69;;;10.47;72.05
78407;BME280;67692;51.074;-1.790;2023-05-24T05:29:58;102084.66;;;10.56;71.99
78407;BME280;67692;51.074;-1.790;2023-05-24T05:32:25;102085.16;;;10.64;71.67
78407;BME280;67692;51.074;-1.790;2023-05-24T05:34:52;102075.41;;;10.69;71.61
78407;BME280;67692;51.074;-1.790;2023-05-24T05:37:19;102083.66;;;10.77;71.63
78407;BME280;67692;51.074;-1.790;2023-05-24T05:39:45;102086.03;;;10.82;71.44
78407;BME280;67692;51.074;-1.790;2023-05-24T05:42:13;102077.47;;;10.80;71.03
78407;BME280;67692;51.074;-1.790;2023-05-24T05:44:40;102083.16;;;10.88;71.07
78407;BME280;67692;51.074;-1.790;2023-05-24T05:47:06;102085.28;;;10.97;70.87
78407;BME280;67692;51.074;-1.790;2023-05-24T05:49:33;102090.88;;;11.07;70.85
78407;BME280;67692;51.074;-1.790;2023-05-24T05:52:01;102090.44;;;11.16;70.70
78407;BME280;67692;51.074;-1.790;2023-05-24T05:54:27;102088.22;;;11.25;70.38
78407;BME280;67692;51.074;-1.790;2023-05-24T05:56:55;102082.66;;;11.33;69.82
78407;BME280;67692;51.074;-1.790;2023-05-24T05:59:23;102081.81;;;11.50;69.32
78407;BME280;67692;51.074;-1.790;2023-05-24T06:01:50;102086.69;;;11.56;69.06
78407;BME280;67692;51.074;-1.790;2023-05-24T06:04:17;102083.41;;;11.52;70.08
78407;BME280;67692;51.074;-1.790;2023-05-24T06:06:44;102086.69;;;11.56;70.15
78407;BME280;67692;51.074;-1.790;2023-05-24T06:09:13;102076.25;;;11.57;69.90
78407;BME280;67692;51.074;-1.790;2023-05-24T06:11:40;102077.69;;;11.63;70.28
78407;BME280;67692;51.074;-1.790;2023-05-24T06:14:09;102088.50;;;11.71;68.74
78407;BME280;67692;51.074;-1.790;2023-05-24T06:16:37;102082.41;;;11.89;68.07
78407;BME280;67692;51.074;-1.790;2023-05-24T06:19:07;102087.28;;;11.96;68.47
78407;BME280;67692;51.074;-1.790;2023-05-24T06:21:34;102081.44;;;12.08;67.71
78407;BME280;67692;51.074;-1.790;2023-05-24T06:24:01;102072.34;;;12.16;67.17
78407;BME280;67692;51.074;-1.790;2023-05-24T06:26:28;102075.50;;;12.21;66.92
78407;BME280;67692;51.074;-1.790;2023-05-24T06:28:55;102071.66;;;12.29;67.98
78407;BME280;67692;51.074;-1.790;2023-05-24T06:31:22;102065.31;;;12.34;66.88
78407;BME280;67692;51.074;-1.790;2023-05-24T06:33:50;102076.28;;;12.39;67.68
78407;BME280;67692;51.074;-1.790;2023-05-24T06:36:16;102068.47;;;12.39;66.61
78407;BME280;67692;51.074;-1.790;2023-05-24T06:38:43;102074.78;;;12.51;66.72
78407;BME280;67692;51.074;-1.790;2023-05-24T06:41:09;102086.66;;;12.55;66.36
78407;BME280;67692;51.074;-1.790;2023-05-24T06:43:36;102084.50;;;12.63;67.15
78407;BME280;67692;51.074;-1.790;2023-05-24T06:46:02;102084.81;;;12.73;66.42
78407;BME280;67692;51.074;-1.790;2023-05-24T06:48:29;102081.31;;;12.74;66.64
78407;BME280;67692;51.074;-1.790;2023-05-24T06:50:57;102084.56;;;12.77;67.10
78407;BME280;67692;51.074;-1.790;2023-05-24T06:53:23;102079.78;;;12.86;67.05
78407;BME280;67692;51.074;-1.790;2023-05-24T06:55:50;102072.75;;;12.88;67.14
78407;BME280;67692;51.074;-1.790;2023-05-24T06:58:17;102079.25;;;12.95;67.02
78407;BME280;67692;51.074;-1.790;2023-05-24T07:00:43;102086.56;;;13.04;67.20
78407;BME280;67692;51.074;-1.790;2023-05-24T07:03:11;102097.34;;;13.12;67.24
78407;BME280;67692;51.074;-1.790;2023-05-24T07:05:38;102098.53;;;13.22;67.04
78407;BME280;67692;51.074;-1.790;2023-05-24T07:08:06;102095.19;;;13.20;67.30
78407;BME280;67692;51.074;-1.790;2023-05-24T07:10:33;102098.16;;;13.28;66.89
78407;BME280;67692;51.074;-1.790;2023-05-24T07:13:00;102093.25;;;13.24;67.43
78407;BME280;67692;51.074;-1.790;2023-05-24T07:15:26;102096.50;;;13.27;67.46
78407;BME280;67692;51.074;-1.790;2023-05-24T07:17:53;102096.16;;;13.33;68.20
78407;BME280;67692;51.074;-1.790;2023-05-24T07:20:19;102103.31;;;13.44;67.92
78407;BME280;67692;51.074;-1.790;2023-05-24T07:22:46;102109.66;;;13.54;67.82
78407;BME280;67692;51.074;-1.790;2023-05-24T07:25:14;102115.38;;;13.61;67.97
78407;BME280;67692;51.074;-1.790;2023-05-24T07:27:40;102119.09;;;13.71;64.94
78407;BME280;67692;51.074;-1.790;2023-05-24T07:30:07;102106.28;;;13.82;64.29
78407;BME280;67692;51.074;-1.790;2023-05-24T07:32:34;102113.53;;;13.91;64.31
78407;BME280;67692;51.074;-1.790;2023-05-24T07:35:01;102122.09;;;13.93;63.80
78407;BME280;67692;51.074;-1.790;2023-05-24T07:37:27;102127.66;;;13.87;63.33
78407;BME280;67692;51.074;-1.790;2023-05-24T07:39:54;102124.13;;;13.88;63.70
78407;BME280;67692;51.074;-1.790;2023-05-24T07:42:22;102125.53;;;13.94;63.67
78407;BME280;67692;51.074;-1.790;2023-05-24T07:44:48;102134.09;;;13.96;63.10
78407;BME280;67692;51.074;-1.790;2023-05-24T07:47:15;102134.81;;;13.98;63.67
78407;BME280;67692;51.074;-1.790;2023-05-24T07:49:42;102131.94;;;14.03;63.30
78407;BME280;67692;51.074;-1.790;2023-05-24T07:52:08;102128.97;;;13.94;63.65
78407;BME280;67692;51.074;-1.790;2023-05-24T07:54:35;102124.31;;;13.99;64.01
78407;BME280;67692;51.074;-1.790;2023-05-24T07:57:02;102142.94;;;14.08;63.46
78407;BME280;67692;51.074;-1.790;2023-05-24T07:59:30;102132.22;;;14.12;63.19
78407;BME280;67692;51.074;-1.790;2023-05-24T08:01:56;102132.72;;;14.19;62.86
78407;BME280;67692;51.074;-1.790;2023-05-24T08:04:28;102130.00;;;14.20;62.70
78407;BME280;67692;51.074;-1.790;2023-05-24T08:06:55;102124.50;;;14.25;62.71
78407;BME280;67692;51.074;-1.790;2023-05-24T08:09:22;102125.97;;;14.29;62.29
78407;BME280;67692;51.074;-1.790;2023-05-24T08:11:48;102122.63;;;14.41;62.59
78407;BME280;67692;51.074;-1.790;2023-05-24T08:14:15;102130.47;;;14.55;61.56
78407;BME280;67692;51.074;-1.790;2023-05-24T08:16:43;102121.22;;;14.64;62.08
78407;BME280;67692;51.074;-1.790;2023-05-24T08:19:09;102115.09;;;14.65;61.54
78407;BME280;67692;51.074;-1.790;2023-05-24T08:21:36;102117.38;;;14.70;60.92
78407;BME280;67692;51.074;-1.790;2023-05-24T08:24:02;102108.53;;;14.72;61.00
78407;BME280;67692;51.074;-1.790;2023-05-24T08:26:29;102114.22;;;14.79;60.38
78407;BME280;67692;51.074;-1.790;2023-05-24T08:28:56;102113.91;;;14.83;59.66
78407;BME280;67692;51.074;-1.790;2023-05-24T08:31:22;102094.81;;;14.83;59.50
78407;BME280;67692;51.074;-1.790;2023-05-24T08:33:50;102097.13;;;14.87;60.27
78407;BME280;67692;51.074;-1.790;2023-05-24T08:36:17;102090.47;;;14.96;59.92
78407;BME280;67692;51.074;-1.790;2023-05-24T08:38:44;102088.19;;;15.04;59.64
78407;BME280;67692;51.074;-1.790;2023-05-24T08:41:10;102098.34;;;15.09;60.78
78407;BME280;67692;51.074;-1.790;2023-05-24T08:43:37;102107.75;;;15.11;59.41
78407;BME280;67692;51.074;-1.790;2023-05-24T08:46:04;102091.94;;;15.00;59.01
78407;BME280;67692;51.074;-1.790;2023-05-24T08:48:33;102099.28;;;15.08;59.73
78407;BME280;67692;51.074;-1.790;2023-05-24T08:51:04;102101.78;;;15.09;59.12
78407;BME280;67692;51.074;-1.790;2023-05-24T08:53:31;102100.84;;;15.10;59.32
78407;BME280;67692;51.074;-1.790;2023-05-24T08:55:58;102101.38;;;15.15;58.38
78407;BME280;67692;51.074;-1.790;2023-05-24T08:58:25;102100.25;;;15.20;57.75
78407;BME280;67692;51.074;-1.790;2023-05-24T09:00:52;102103.41;;;15.25;58.12
78407;BME280;67692;51.074;-1.790;2023-05-24T09:03:19;102091.69;;;15.30;58.46
78407;BME280;67692;51.074;-1.790;2023-05-24T09:05:45;102090.28;;;15.39;57.97
78407;BME280;67692;51.074;-1.790;2023-05-24T09:08:14;102084.44;;;15.35;58.45
78407;BME280;67692;51.074;-1.790;2023-05-24T09:10:42;102084.84;;;15.42;58.73
78407;BME280;67692;51.074;-1.790;2023-05-24T09:13:09;102082.56;;;15.50;59.50
78407;BME280;67692;51.074;-1.790;2023-05-24T09:15:37;102095.16;;;15.43;58.53
78407;BME280;67692;51.074;-1.790;2023-05-24T09:18:04;102087.22;;;15.45;58.98
78407;BME280;67692;51.074;-1.790;2023-05-24T09:20:30;102080.13;;;15.47;57.88
78407;BME280;67692;51.074;-1.790;2023-05-24T09:22:58;102075.03;;;15.45;57.86
78407;BME280;67692;51.074;-1.790;2023-05-24T09:25:27;102087.97;;;15.47;57.40
78407;BME280;67692;51.074;-1.790;2023-05-24T09:27:54;102091.50;;;15.46;57.12
78407;BME280;67692;51.074;-1.790;2023-05-24T09:30:21;102082.97;;;15.57;57.35
78407;BME280;67692;51.074;-1.790;2023-05-24T09:32:55;102085.06;;;15.52;57.71
78407;BME280;67692;51.074;-1.790;2023-05-24T09:35:22;102080.91;;;15.62;57.49
78407;BME280;67692;51.074;-1.790;2023-05-24T09:37:53;102076.34;;;15.65;58.15
78407;BME280;67692;51.074;-1.790;2023-05-24T09:40:22;102069.63;;;15.74;57.92
78407;BME280;67692;51.074;-1.790;2023-05-24T09:43:01;102078.72;;;15.81;57.76
78407;BME280;67692;51.074;-1.790;2023-05-24T09:45:28;102081.13;;;15.71;58.24
78407;BME280;67692;51.074;-1.790;2023-05-24T09:47:54;102080.50;;;15.81;58.04
78407;BME280;67692;51.074;-1.790;2023-05-24T09:50:22;102079.13;;;15.88;57.28
78407;BME280;67692;51.074;-1.790;2023-05-24T09:52:50;102074.00;;;15.86;57.47
78407;BME280;67692;51.074;-1.790;2023-05-24T09:55:19;102068.34;;;16.05;57.45
78407;BME280;67692;51.074;-1.790;2023-05-24T09:57:51;102067.09;;;16.11;56.24
78407;BME280;67692;51.074;-1.790;2023-05-24T10:00:21;102055.28;;;16.05;57.42
78407;BME280;67692;51.074;-1.790;2023-05-24T10:02:59;102059.22;;;16.23;56.50
78407;BME280;67692;51.074;-1.790;2023-05-24T10:05:27;102053.53;;;16.29;55.87
78407;BME280;67692;51.074;-1.790;2023-05-24T10:07:55;102061.38;;;16.29;54.77
78407;BME280;67692;51.074;-1.790;2023-05-24T10:10:26;102061.38;;;16.29;54.97
78407;BME280;67692;51.074;-1.790;2023-05-24T10:12:56;102075.06;;;16.33;55.34
78407;BME280;67692;51.074;-1.790;2023-05-24T10:15:23;102067.34;;;16.31;55.94
78407;BME280;67692;51.074;-1.790;2023-05-24T10:17:50;102068.59;;;16.39;56.19
78407;BME280;67692;51.074;-1.790;2023-05-24T10:20:17;102061.47;;;16.41;55.68
78407;BME280;67692;51.074;-1.790;2023-05-24T10:22:45;102063.28;;;16.27;55.79
78407;BME280;67692;51.074;-1.790;2023-05-24T10:25:15;102046.78;;;16.14;56.12
78407;BME280;67692;51.074;-1.790;2023-05-24T10:27:42;102043.69;;;16.09;56.61
78407;BME280;67692;51.074;-1.790;2023-05-24T10:30:15;102046.25;;;16.22;56.11
78407;BME280;67692;51.074;-1.790;2023-05-24T10:32:44;102033.22;;;16.09;56.53
78407;BME280;67692;51.074;-1.790;2023-05-24T10:35:11;102024.72;;;16.18;56.08
78407;BME280;67692;51.074;-1.790;2023-05-24T10:37:39;102027.25;;;16.44;56.82
78407;BME280;67692;51.074;-1.790;2023-05-24T10:40:07;102030.19;;;16.63;56.22
78407;BME280;67692;51.074;-1.790;2023-05-24T10:42:42;102036.69;;;16.70;54.97
78407;BME280;67692;51.074;-1.790;2023-05-24T10:45:33;102043.88;;;16.79;54.73
78407;BME280;67692;51.074;-1.790;2023-05-24T10:51:02;102044.31;;;16.73;54.85
78407;BME280;67692;51.074;-1.790;2023-05-24T10:53:48;102036.22;;;16.76;54.92
78407;BME280;67692;51.074;-1.790;2023-05-24T10:56:15;102038.97;;;16.75;54.43
78407;BME280;67692;51.074;-1.790;2023-05-24T10:58:57;102034.69;;;16.74;54.14
78407;BME280;67692;51.074;-1.790;2023-05-24T11:01:26;102036.16;;;16.89;54.38
78407;BME280;67692;51.074;-1.790;2023-05-24T11:04:05;102044.19;;;16.99;53.77
78407;BME280;67692;51.074;-1.790;2023-05-24T11:06:44;102039.78;;;16.99;53.15
78407;BME280;67692;51.074;-1.790;2023-05-24T11:09:13;102032.69;;;17.12;52.81
78407;BME280;67692;51.074;-1.790;2023-05-24T11:11:43;102038.69;;;17.02;52.29
78407;BME280;67692;51.074;-1.790;2023-05-24T11:14:10;102032.75;;;17.00;53.07
78407;BME280;67692;51.074;-1.790;2023-05-24T11:16:39;102041.47;;;17.11;52.72
78407;BME280;67692;51.074;-1.790;2023-05-24T11:19:16;102027.44;;;17.12;49.79
78407;BME280;67692;51.074;-1.790;2023-05-24T11:21:44;102028.88;;;17.16;51.26
78407;BME280;67692;51.074;-1.790;2023-05-24T11:24:12;102034.03;;;17.29;50.26
78407;BME280;67692;51.074;-1.790;2023-05-24T11:26:38;102030.31;;;17.32;50.56
78407;BME280;67692;51.074;-1.790;2023-05-24T11:29:06;102032.13;;;17.42;50.89
78407;BME280;67692;51.074;-1.790;2023-05-24T11:31:34;102034.16;;;17.50;51.98
78407;BME280;67692;51.074;-1.790;2023-05-24T11:34:05;102025.00;;;17.44;50.42
78407;BME280;67692;51.074;-1.790;2023-05-24T11:36:35;102019.31;;;17.50;48.99
78407;BME280;67692;51.074;-1.790;2023-05-24T11:39:06;102017.41;;;17.52;49.81
78407;BME280;67692;51.074;-1.790;2023-05-24T11:41:35;102017.16;;;17.67;50.04
78407;BME280;67692;51.074;-1.790;2023-05-24T11:44:02;102013.72;;;17.66;49.51
78407;BME280;67692;51.074;-1.790;2023-05-24T11:46:29;102026.22;;;17.74;48.37
78407;BME280;67692;51.074;-1.790;2023-05-24T11:48:56;102030.06;;;17.81;48.14
78407;BME280;67692;51.074;-1.790;2023-05-24T11:51:29;102017.06;;;17.79;46.87
78407;BME280;67692;51.074;-1.790;2023-05-24T11:53:56;102001.81;;;17.73;47.50
78407;BME280;67692;51.074;-1.790;2023-05-24T11:56:23;102015.75;;;17.74;47.19
78407;BME280;67692;51.074;-1.790;2023-05-24T12:01:37;102021.25;;;17.82;46.61
78407;BME280;67692;51.074;-1.790;2023-05-24T12:04:05;102021.44;;;17.90;46.38
78407;BME280;67692;51.074;-1.790;2023-05-24T12:06:36;102021.06;;;18.06;45.33
78407;BME280;67692;51.074;-1.790;2023-05-24T12:09:04;102015.25;;;18.02;46.50
78407;BME280;67692;51.074;-1.790;2023-05-24T12:11:33;102021.00;;;17.96;46.62
78407;BME280;67692;51.074;-1.790;2023-05-24T12:13:59;102013.59;;;18.01;46.70
78407;BME280;67692;51.074;-1.790;2023-05-24T12:16:26;102022.75;;;18.07;48.06
78407;BME280;67692;51.074;-1.790;2023-05-24T12:18:56;102020.22;;;18.17;48.47
78407;BME280;67692;51.074;-1.790;2023-05-24T12:21:22;102015.63;;;18.09;47.70
78407;BME280;67692;51.074;-1.790;2023-05-24T12:23:50;102013.06;;;18.19;46.42
78407;BME280;67692;51.074;-1.790;2023-05-24T12:26:17;102009.03;;;18.14;46.54
78407;BME280;67692;51.074;-1.790;2023-05-24T12:28:51;102016.41;;;18.21;46.31
78407;BME280;67692;51.074;-1.790;2023-05-24T12:31:18;101995.81;;;18.16;47.46
78407;BME280;67692;51.074;-1.790;2023-05-24T12:33:46;102004.03;;;18.11;46.57
78407;BME280;67692;51.074;-1.790;2023-05-24T12:36:12;101996.63;;;18.17;46.21
78407;BME280;67692;51.074;-1.790;2023-05-24T12:38:39;102002.81;;;18.27;46.96
78407;BME280;67692;51.074;-1.790;2023-05-24T12:41:09;101992.66;;;18.33;47.39
78407;BME280;67692;51.074;-1.790;2023-05-24T12:43:36;102002.06;;;18.36;46.53
78407;BME280;67692;51.074;-1.790;2023-05-24T12:46:04;101990.84;;;18.34;46.77
78407;BME280;67692;51.074;-1.790;2023-05-24T12:48:31;101988.66;;;18.50;47.09
78407;BME280;67692;51.074;-1.790;2023-05-24T12:50:57;101984.78;;;18.65;46.48